Time;durP1;ratioP1;P1;durP2;ratioP2;P2;SDS_P1;SDS_P2;PMS_P1;PMS_P2;Temp;Humidity;BMP_temperature;BMP_pressure;BME280_temperature;BME280_humidity;BME280_pressure;Samples;Min_cycle;Max_cycle;Signal;HPM_P1;HPM_P2
2022/09/18 00:00:09;;;;;;;8.30;2.80;;;11.40;99.90;;;;;;5133104;27;20207;-83
2022/09/18 00:02:36;;;;;;;5.23;2.60;;;11.40;99.90;;;;;;5133997;27;20205;-83
2022/09/18 00:05:04;;;;;;;6.00;2.67;;;11.30;99.90;;;;;;5132982;27;20233;-82
2022/09/18 00:07:31;;;;;;;5.73;2.57;;;11.30;99.90;;;;;;5132852;27;20250;-82
2022/09/18 00:09:57;;;;;;;5.87;2.60;;;11.30;99.90;;;;;;5133086;27;20201;-81
2022/09/18 00:12:24;;;;;;;3.83;2.40;;;11.30;99.90;;;;;;5132882;27;20680;-83
2022/09/18 00:14:51;;;;;;;3.97;2.37;;;11.20;99.90;;;;;;5132776;28;20652;-81
2022/09/18 00:17:19;;;;;;;8.70;3.03;;;11.20;99.90;;;;;;5133188;28;20683;-82
2022/09/18 00:19:46;;;;;;;5.83;2.30;;;11.20;99.90;;;;;;5133651;28;20208;-82
2022/09/18 00:22:13;;;;;;;9.23;3.07;;;11.20;99.90;;;;;;5133229;28;20661;-83
2022/09/18 00:24:40;;;;;;;5.43;2.03;;;11.30;99.90;;;;;;5133286;28;20226;-81
2022/09/18 00:27:07;;;;;;;4.60;2.53;;;11.30;99.90;;;;;;5132862;28;20224;-83
2022/09/18 00:29:33;;;;;;;4.17;2.47;;;11.30;99.90;;;;;;5134145;28;20201;-82
2022/09/18 00:32:00;;;;;;;5.07;2.60;;;11.30;99.90;;;;;;5133505;28;20196;-82
2022/09/18 00:34:29;;;;;;;5.73;2.20;;;11.30;99.90;;;;;;5133090;28;20567;-82
2022/09/18 00:36:55;;;;;;;4.83;2.73;;;11.30;99.90;;;;;;5133258;27;20223;-83
2022/09/18 00:39:23;;;;;;;6.10;2.60;;;11.20;99.90;;;;;;5133976;28;20189;-83
2022/09/18 00:41:50;;;;;;;5.97;2.10;;;11.10;99.90;;;;;;5131843;28;20250;-82
2022/09/18 00:44:38;;;;;;;8.80;2.57;;;11.10;99.90;;;;;;5132810;28;20224;-81
2022/09/18 00:47:16;;;;;;;9.30;2.37;;;11.10;99.90;;;;;;5134077;27;20208;-82
2022/09/18 00:49:49;;;;;;;4.80;2.37;;;11.00;99.90;;;;;;5137556;27;20550;-83
2022/09/18 00:52:20;;;;;;;4.00;2.17;;;11.00;99.90;;;;;;5137171;27;20200;-82
2022/09/18 00:54:50;;;;;;;6.87;1.73;;;11.00;99.90;;;;;;5137593;27;20596;-84
2022/09/18 00:57:21;;;;;;;3.93;2.00;;;11.00;99.90;;;;;;5136710;27;20217;-83
2022/09/18 00:59:50;;;;;;;9.70;2.33;;;11.10;99.90;;;;;;5137053;27;20189;-83
2022/09/18 01:02:17;;;;;;;7.60;2.27;;;11.20;99.90;;;;;;5136402;27;20562;-82
2022/09/18 01:04:46;;;;;;;9.90;2.13;;;11.10;99.90;;;;;;5137255;27;20229;-84
2022/09/18 01:07:24;;;;;;;3.50;1.60;;;11.10;99.90;;;;;;5137397;27;20640;-83
2022/09/18 01:10:02;;;;;;;3.37;1.53;;;11.20;99.90;;;;;;5136600;27;20688;-84
2022/09/18 01:12:37;;;;;;;4.07;2.23;;;11.20;99.90;;;;;;5136434;27;20566;-83
2022/09/18 01:15:11;;;;;;;5.23;1.70;;;11.20;99.90;;;;;;5136907;27;20200;-82
2022/09/18 01:17:45;;;;;;;5.80;2.10;;;11.30;99.90;;;;;;5136494;27;20281;-83
2022/09/18 01:20:29;;;;;;;3.57;1.67;;;11.20;99.90;;;;;;5136549;27;20306;-83
2022/09/18 01:23:13;;;;;;;4.93;1.90;;;11.20;99.90;;;;;;5136022;27;20462;-83
2022/09/18 01:25:56;;;;;;;4.83;1.90;;;11.20;99.90;;;;;;5136696;27;20213;-84
2022/09/18 01:28:29;;;;;;;5.73;1.63;;;11.20;99.90;;;;;;5136913;27;20213;-84
2022/09/18 01:30:59;;;;;;;5.23;1.60;;;11.20;99.90;;;;;;5136798;27;20212;-84
2022/09/18 01:33:31;;;;;;;6.53;1.90;;;11.20;99.90;;;;;;5134591;27;20575;-83
2022/09/18 01:36:02;;;;;;;2.83;1.57;;;11.20;99.90;;;;;;5115650;28;20207;-83
2022/09/18 01:38:33;;;;;;;5.27;1.63;;;11.10;99.90;;;;;;5114571;28;20199;-83
2022/09/18 01:41:04;;;;;;;2.50;1.23;;;11.10;99.90;;;;;;5114519;28;20207;-84
2022/09/18 01:43:35;;;;;;;7.43;1.80;;;11.10;99.90;;;;;;5115624;28;20228;-84
2022/09/18 01:46:06;;;;;;;3.27;1.53;;;11.10;99.90;;;;;;5114821;28;20223;-83
2022/09/18 01:48:36;;;;;;;2.30;1.60;;;11.00;99.90;;;;;;5115552;28;20204;-82
2022/09/18 01:51:08;;;;;;;3.33;1.43;;;11.00;99.90;;;;;;5116052;28;20192;-83
2022/09/18 01:53:39;;;;;;;2.63;1.47;;;11.00;99.90;;;;;;5114636;28;20591;-83
2022/09/18 01:56:11;;;;;;;4.60;1.77;;;11.00;99.90;;;;;;5114736;28;20208;-83
2022/09/18 01:58:40;;;;;;;2.10;1.80;;;11.00;99.90;;;;;;5113609;28;20200;-82
2022/09/18 02:01:12;;;;;;;4.80;1.70;;;10.90;99.90;;;;;;5115511;28;20216;-82
2022/09/18 02:03:44;;;;;;;3.33;1.40;;;10.80;99.90;;;;;;5114065;28;20220;-82
2022/09/18 02:06:16;;;;;;;4.23;1.30;;;10.80;99.90;;;;;;5115033;28;20232;-81
2022/09/18 02:08:46;;;;;;;3.30;1.37;;;10.80;99.90;;;;;;5114872;28;20280;-82
2022/09/18 02:11:16;;;;;;;4.00;1.63;;;10.70;99.90;;;;;;5115198;28;20212;-83
2022/09/18 02:13:51;;;;;;;5.80;1.70;;;10.60;99.90;;;;;;5115257;28;20207;-83
2022/09/18 02:16:22;;;;;;;3.83;1.53;;;10.60;99.90;;;;;;5115088;28;20234;-83
2022/09/18 02:18:53;;;;;;;5.17;1.70;;;10.60;99.90;;;;;;5114937;28;20199;-83
2022/09/18 02:21:26;;;;;;;3.03;1.70;;;10.60;99.90;;;;;;5115228;28;20192;-83
2022/09/18 02:23:56;;;;;;;2.07;1.70;;;10.60;99.90;;;;;;5114161;28;20200;-82
2022/09/18 02:26:23;;;;;;;3.97;1.90;;;10.60;99.90;;;;;;5114406;28;20232;-83
2022/09/18 02:28:52;;;;;;;5.73;1.63;;;10.50;99.90;;;;;;5115011;28;20616;-83
2022/09/18 02:31:20;;;;;;;3.43;2.00;;;10.50;99.90;;;;;;5114837;28;20199;-82
2022/09/18 02:33:48;;;;;;;3.77;1.67;;;10.50;99.90;;;;;;5114315;28;20204;-84
2022/09/18 02:36:52;;;;;;;1.83;1.70;;;10.50;99.90;;;;;;5114667;28;20205;-85
2022/09/18 02:39:52;;;;;;;5.03;2.17;;;10.50;99.90;;;;;;5101344;28;20648;-82
2022/09/18 02:42:35;;;;;;;4.43;2.00;;;10.60;99.90;;;;;;5114222;28;20633;-83
2022/09/18 02:45:13;;;;;;;4.95;2.13;;;10.60;99.90;;;;;;5113903;28;20436;-83
2022/09/18 02:47:54;;;;;;;3.90;2.00;;;10.60;99.90;;;;;;5115074;28;20196;-83
2022/09/18 02:50:28;;;;;;;5.00;2.57;;;10.60;99.90;;;;;;5114763;28;20193;-83
2022/09/18 02:53:04;;;;;;;4.80;2.20;;;10.60;99.90;;;;;;5114426;28;20191;-85
2022/09/18 02:55:40;;;;;;;1.93;1.70;;;10.60;99.90;;;;;;5113981;28;20216;-87
2022/09/18 02:58:12;;;;;;;2.03;1.93;;;10.70;99.90;;;;;;5113955;28;20193;-84
2022/09/18 03:00:41;;;;;;;4.03;1.70;;;10.60;99.90;;;;;;5114318;28;20205;-85
2022/09/18 03:03:13;;;;;;;2.53;1.77;;;10.60;99.90;;;;;;5114060;28;20220;-86
2022/09/18 03:05:39;;;;;;;5.50;2.73;;;10.60;99.90;;;;;;5113641;28;20224;-85
2022/09/18 03:08:07;;;;;;;5.03;1.67;;;10.60;99.90;;;;;;5114172;28;20200;-85
2022/09/18 03:10:34;;;;;;;5.17;2.03;;;10.50;99.90;;;;;;5113842;28;20212;-87
2022/09/18 03:13:01;;;;;;;3.33;1.83;;;10.50;99.90;;;;;;5113807;28;20432;-87
2022/09/18 03:15:28;;;;;;;4.53;1.90;;;10.60;99.90;;;;;;5114314;28;20200;-85
2022/09/18 03:17:56;;;;;;;6.27;2.13;;;10.60;99.90;;;;;;5113849;28;20567;-86
2022/09/18 03:20:23;;;;;;;2.63;2.07;;;10.60;99.90;;;;;;5113141;28;20200;-87
2022/09/18 03:22:49;;;;;;;3.40;2.30;;;10.60;99.90;;;;;;5113417;28;20205;-85
2022/09/18 03:25:16;;;;;;;3.03;1.90;;;10.70;99.90;;;;;;5113340;28;20216;-85
2022/09/18 03:27:43;;;;;;;3.53;1.60;;;10.70;99.90;;;;;;5113852;28;20201;-87
2022/09/18 03:30:11;;;;;;;2.60;2.37;;;10.70;99.90;;;;;;5113809;28;20212;-85
2022/09/18 03:32:38;;;;;;;4.27;1.90;;;10.70;99.90;;;;;;5113579;28;20413;-85
2022/09/18 03:35:07;;;;;;;6.70;2.10;;;10.70;99.90;;;;;;5113751;28;20215;-85
2022/09/18 03:37:34;;;;;;;2.60;2.40;;;10.70;99.90;;;;;;5112803;28;20205;-84
2022/09/18 03:40:01;;;;;;;3.20;2.23;;;10.90;99.90;;;;;;5113130;28;20196;-85
2022/09/18 03:42:28;;;;;;;4.03;2.45;;;10.70;99.90;;;;;;5112659;28;20506;-85
2022/09/18 03:44:56;;;;;;;2.73;2.00;;;10.70;99.90;;;;;;5113387;28;20208;-84
2022/09/18 03:47:23;;;;;;;2.07;1.90;;;10.70;99.90;;;;;;5113807;28;20190;-86
2022/09/18 03:49:50;;;;;;;2.60;1.67;;;10.70;99.90;;;;;;5113498;28;20192;-83
2022/09/18 03:52:20;;;;;;;2.20;1.90;;;10.70;99.90;;;;;;5113917;28;20190;-83
2022/09/18 03:54:47;;;;;;;3.80;1.70;;;10.80;99.90;;;;;;5113357;28;20205;-84
2022/09/18 03:57:16;;;;;;;2.57;1.70;;;10.70;99.90;;;;;;5113572;28;20200;-83
2022/09/18 03:59:42;;;;;;;4.57;2.03;;;10.70;99.90;;;;;;5112928;28;20204;-87
2022/09/18 04:02:09;;;;;;;3.00;2.13;;;10.70;99.90;;;;;;5113331;28;20247;-84
2022/09/18 04:04:36;;;;;;;3.63;2.17;;;10.70;99.90;;;;;;5113070;28;20204;-85
2022/09/18 04:07:03;;;;;;;4.97;2.10;;;10.70;99.90;;;;;;5112911;28;20247;-84
2022/09/18 04:09:31;;;;;;;4.83;2.10;;;10.60;99.90;;;;;;5111544;28;20539;-85
2022/09/18 04:11:58;;;;;;;2.13;1.93;;;10.60;99.90;;;;;;5113058;28;20200;-85
2022/09/18 04:14:24;;;;;;;5.80;2.30;;;10.60;99.90;;;;;;5112718;28;20192;-86
2022/09/18 04:16:51;;;;;;;3.03;1.80;;;10.60;99.90;;;;;;5112642;28;20214;-84
2022/09/18 04:19:18;;;;;;;5.90;2.13;;;10.60;99.90;;;;;;5112074;28;20193;-84
2022/09/18 04:21:45;;;;;;;3.93;2.07;;;10.60;99.90;;;;;;5111718;28;20199;-82
2022/09/18 04:24:14;;;;;;;1.97;1.83;;;10.60;99.90;;;;;;5117034;28;20196;-86
2022/09/18 04:26:42;;;;;;;3.37;2.00;;;10.50;99.90;;;;;;5116938;28;20328;-85
2022/09/18 04:29:09;;;;;;;4.23;2.17;;;10.50;99.90;;;;;;5117481;28;20209;-83
2022/09/18 04:31:37;;;;;;;5.00;1.67;;;10.50;99.90;;;;;;5116441;28;20224;-85
2022/09/18 04:34:06;;;;;;;3.73;1.87;;;10.50;99.90;;;;;;5117093;28;20237;-87
2022/09/18 04:36:32;;;;;;;5.57;1.80;;;10.50;99.90;;;;;;5117266;28;20205;-87
2022/09/18 04:38:59;;;;;;;3.57;1.90;;;10.50;99.90;;;;;;5116950;28;20199;-84
2022/09/18 04:41:26;;;;;;;6.47;2.03;;;10.40;99.90;;;;;;5116755;28;20204;-84
2022/09/18 04:43:55;;;;;;;3.00;1.97;;;10.40;99.90;;;;;;5116809;28;20207;-82
2022/09/18 04:46:23;;;;;;;7.20;2.30;;;10.50;99.90;;;;;;5117149;28;20224;-86
2022/09/18 04:48:50;;;;;;;2.30;1.67;;;10.60;99.90;;;;;;5116050;28;20197;-86
2022/09/18 04:51:17;;;;;;;4.10;1.80;;;10.50;99.90;;;;;;5116601;28;20652;-87
2022/09/18 04:53:44;;;;;;;8.63;2.00;;;10.50;99.90;;;;;;5116958;28;20597;-83
2022/09/18 04:56:11;;;;;;;1.97;1.73;;;10.50;99.90;;;;;;5117117;28;20199;-84
2022/09/18 04:58:37;;;;;;;4.00;1.87;;;10.50;99.90;;;;;;5116874;28;20220;-84
2022/09/18 05:01:06;;;;;;;5.33;2.43;;;10.50;99.90;;;;;;5119687;27;20223;-84
2022/09/18 05:03:33;;;;;;;4.73;2.20;;;10.40;99.90;;;;;;5125698;27;20196;-85
2022/09/18 05:05:59;;;;;;;3.03;1.90;;;10.30;99.90;;;;;;5136877;27;20240;-85
2022/09/18 05:08:28;;;;;;;4.37;1.80;;;10.30;99.90;;;;;;5136148;27;20235;-85
2022/09/18 05:10:55;;;;;;;4.63;1.87;;;10.40;99.90;;;;;;5136401;27;20543;-83
2022/09/18 05:13:22;;;;;;;2.63;1.70;;;10.40;99.90;;;;;;5136541;27;20231;-86
2022/09/18 05:15:53;;;;;;;5.53;1.97;;;10.50;99.90;;;;;;5136801;27;20204;-85
2022/09/18 05:18:22;;;;;;;4.27;1.87;;;10.50;99.90;;;;;;5136438;27;20281;-84
2022/09/18 05:20:48;;;;;;;2.97;1.70;;;10.50;99.90;;;;;;5136609;27;20200;-87
2022/09/18 05:23:15;;;;;;;4.07;2.00;;;10.40;99.90;;;;;;5136714;27;20199;-86
2022/09/18 05:25:42;;;;;;;3.27;2.00;;;10.50;99.90;;;;;;5137014;27;20203;-86
2022/09/18 05:28:12;;;;;;;2.33;1.53;;;10.50;99.90;;;;;;5136459;27;20227;-85
2022/09/18 05:30:38;;;;;;;2.20;1.70;;;10.60;99.90;;;;;;5136090;27;20669;-84
2022/09/18 05:33:07;;;;;;;4.53;2.20;;;10.50;99.90;;;;;;5135732;27;20898;-87
2022/09/18 05:35:36;;;;;;;4.20;2.20;;;10.60;99.90;;;;;;5136717;27;20188;-85
2022/09/18 05:38:03;;;;;;;1.83;1.67;;;10.60;99.90;;;;;;5136927;27;20185;-84
2022/09/18 05:40:34;;;;;;;1.90;1.80;;;10.60;99.90;;;;;;5136383;27;20230;-88
2022/09/18 05:43:02;;;;;;;4.43;2.20;;;10.50;99.90;;;;;;5136288;27;20203;-86
2022/09/18 05:45:29;;;;;;;2.93;2.10;;;10.60;99.90;;;;;;5136583;27;20204;-86
2022/09/18 05:47:57;;;;;;;4.20;2.20;;;10.60;99.90;;;;;;5136184;27;20195;-87
2022/09/18 05:50:26;;;;;;;4.53;2.03;;;10.60;99.90;;;;;;5136354;27;20199;-84
2022/09/18 05:53:03;;;;;;;4.67;2.30;;;10.60;99.90;;;;;;5136803;27;20196;-86
2022/09/18 05:55:31;;;;;;;3.83;1.90;;;10.70;99.90;;;;;;5136439;27;20223;-85
2022/09/18 05:58:02;;;;;;;3.37;1.63;;;10.80;99.90;;;;;;5137024;27;20228;-87
2022/09/18 06:00:32;;;;;;;2.45;1.92;;;10.80;99.90;;;;;;5136022;27;20425;-84
2022/09/18 06:03:00;;;;;;;3.03;2.30;;;10.90;99.90;;;;;;5136423;27;20204;-87
2022/09/18 06:05:30;;;;;;;2.63;2.20;;;11.10;99.90;;;;;;5136492;27;20211;-84
2022/09/18 06:07:59;;;;;;;2.87;1.70;;;11.10;99.90;;;;;;5135558;27;20557;-86
2022/09/18 06:10:28;;;;;;;3.00;1.87;;;11.20;99.90;;;;;;5135386;27;20670;-84
2022/09/18 06:13:01;;;;;;;5.20;1.97;;;11.30;99.90;;;;;;5135540;27;20212;-84
2022/09/18 06:15:28;;;;;;;3.97;1.67;;;11.30;99.90;;;;;;5135811;27;20208;-87
2022/09/18 06:17:55;;;;;;;2.73;1.50;;;11.30;99.90;;;;;;5135653;27;20207;-84
2022/09/18 06:20:22;;;;;;;8.43;2.23;;;11.40;99.90;;;;;;5136201;27;20185;-86
2022/09/18 06:22:48;;;;;;;3.73;1.80;;;11.40;99.90;;;;;;5136094;27;20201;-86
2022/09/18 06:25:20;;;;;;;1.70;1.50;;;11.60;99.90;;;;;;5135864;27;20209;-87
2022/09/18 06:27:53;;;;;;;5.10;1.90;;;11.50;99.90;;;;;;5135839;27;20293;-87
2022/09/18 06:30:20;;;;;;;4.83;1.83;;;11.60;99.90;;;;;;5135797;27;20288;-87
2022/09/18 06:32:47;;;;;;;3.70;1.90;;;11.60;99.90;;;;;;5135674;27;20200;-86
2022/09/18 06:35:14;;;;;;;2.30;1.80;;;11.60;99.90;;;;;;5135813;27;20197;-88
2022/09/18 06:37:40;;;;;;;2.33;1.40;;;11.70;99.90;;;;;;5136058;27;20209;-87
2022/09/18 06:40:08;;;;;;;3.50;1.50;;;11.80;99.90;;;;;;5135853;27;20208;-87
2022/09/18 06:42:35;;;;;;;4.87;1.67;;;11.80;99.90;;;;;;5136033;27;20212;-87
2022/09/18 06:45:03;;;;;;;2.43;1.73;;;11.90;99.90;;;;;;5134702;27;20186;-86
2022/09/18 06:47:30;;;;;;;3.90;1.70;;;12.00;99.90;;;;;;5135535;27;20237;-86
2022/09/18 06:49:57;;;;;;;4.30;1.60;;;12.00;99.90;;;;;;5135560;27;20191;-87
2022/09/18 06:52:24;;;;;;;3.87;1.60;;;12.10;99.90;;;;;;5136011;27;20194;-87
2022/09/18 06:54:51;;;;;;;6.63;1.90;;;12.10;99.90;;;;;;5135381;27;20215;-87
2022/09/18 06:57:18;;;;;;;4.15;1.70;;;12.10;99.90;;;;;;5135543;27;20427;-87
2022/09/18 06:59:45;;;;;;;1.93;1.73;;;12.20;99.90;;;;;;5140337;27;20189;-84
2022/09/18 07:02:14;;;;;;;4.13;1.97;;;12.30;99.90;;;;;;5141023;27;20206;-87
2022/09/18 07:04:41;;;;;;;3.23;1.67;;;12.20;99.90;;;;;;5140262;27;20209;-87
2022/09/18 07:07:08;;;;;;;6.37;2.10;;;12.30;99.90;;;;;;5137269;27;20217;-86
2022/09/18 07:09:35;;;;;;;2.70;1.90;;;12.40;99.90;;;;;;5136676;27;20205;-86
2022/09/18 07:12:02;;;;;;;3.07;2.20;;;12.50;99.90;;;;;;5137662;27;20210;-87
2022/09/18 07:14:29;;;;;;;4.93;1.67;;;12.50;99.90;;;;;;5137019;27;20203;-88
2022/09/18 07:16:56;;;;;;;2.23;1.50;;;12.50;99.90;;;;;;5137626;27;20210;-87
2022/09/18 07:19:25;;;;;;;1.77;1.57;;;12.60;99.90;;;;;;5138034;27;20218;-86
2022/09/18 07:21:52;;;;;;;3.00;2.00;;;12.60;99.90;;;;;;5138076;27;20574;-86
2022/09/18 07:24:19;;;;;;;2.93;1.73;;;12.60;99.90;;;;;;5138353;27;20194;-85
2022/09/18 07:26:47;;;;;;;2.30;1.93;;;12.60;99.90;;;;;;5137842;27;20219;-86
2022/09/18 07:29:13;;;;;;;5.27;2.23;;;12.60;99.90;;;;;;5139751;27;20211;-87
2022/09/18 07:31:40;;;;;;;2.90;1.87;;;12.50;99.90;;;;;;5137543;27;20214;-87
2022/09/18 07:34:08;;;;;;;4.60;1.90;;;12.60;99.90;;;;;;5136041;27;20192;-87
2022/09/18 07:36:36;;;;;;;2.30;2.10;;;12.70;99.90;;;;;;5136347;27;20270;-86
2022/09/18 07:39:03;;;;;;;4.87;1.97;;;12.80;99.90;;;;;;5135141;27;20199;-86
2022/09/18 07:41:30;;;;;;;1.80;1.70;;;12.80;99.90;;;;;;5131342;27;20282;-86
2022/09/18 07:43:58;;;;;;;3.17;1.73;;;12.80;99.90;;;;;;5123468;27;20199;-88
2022/09/18 07:46:27;;;;;;;5.57;1.90;;;12.80;99.90;;;;;;5117255;28;20199;-90
2022/09/18 07:48:54;;;;;;;2.53;2.33;;;12.90;99.90;;;;;;5120016;28;20228;-90
2022/09/18 07:51:28;;;;;;;2.47;1.90;;;12.90;99.90;;;;;;5116195;28;20203;-90
2022/09/18 07:53:56;;;;;;;5.13;2.60;;;12.90;99.90;;;;;;5113850;28;20428;-91
2022/09/18 07:56:28;;;;;;;5.23;2.17;;;13.10;99.90;;;;;;5113922;28;20437;-90
2022/09/18 07:59:03;;;;;;;2.00;1.70;;;13.00;99.90;;;;;;5115185;28;20224;-93
2022/09/18 08:01:35;;;;;;;3.67;1.97;;;13.10;99.90;;;;;;5115580;28;20204;-89
2022/09/18 08:04:05;;;;;;;3.70;1.60;;;13.10;99.90;;;;;;5114779;28;20246;-89
2022/09/18 08:06:32;;;;;;;4.00;1.90;;;13.20;99.90;;;;;;5114669;28;20652;-85
2022/09/18 08:09:02;;;;;;;2.50;1.70;;;13.10;99.90;;;;;;5131174;27;20196;-89
2022/09/18 08:11:31;;;;;;;4.53;2.00;;;13.20;99.90;;;;;;5129710;27;20199;-86
2022/09/18 08:14:00;;;;;;;6.00;2.17;;;13.20;99.90;;;;;;5120878;27;20199;-89
2022/09/18 08:16:27;;;;;;;1.97;1.80;;;13.30;99.90;;;;;;5128974;28;20195;-89
2022/09/18 08:18:57;;;;;;;1.80;1.70;;;13.30;99.90;;;;;;5129379;27;20188;-87
2022/09/18 08:21:24;;;;;;;3.07;2.10;;;13.40;99.90;;;;;;5126989;28;20696;-88
2022/09/18 08:23:50;;;;;;;2.97;1.77;;;13.50;99.90;;;;;;5136248;28;20298;-89
2022/09/18 08:26:19;;;;;;;4.07;2.07;;;13.50;99.90;;;;;;5137325;28;20190;-85
2022/09/18 08:28:47;;;;;;;3.77;2.03;;;13.60;99.90;;;;;;5137081;28;20224;-86
2022/09/18 08:31:14;;;;;;;4.23;2.20;;;13.60;99.90;;;;;;5141460;28;20274;-89
2022/09/18 08:33:41;;;;;;;2.03;1.73;;;13.70;99.90;;;;;;5137066;28;20204;-85
2022/09/18 08:36:08;;;;;;;5.67;2.10;;;13.70;99.90;;;;;;5135130;28;20204;-87
2022/09/18 08:38:35;;;;;;;4.80;1.63;;;13.80;99.90;;;;;;5136709;28;20211;-86
2022/09/18 08:41:14;;;;;;;3.20;1.60;;;13.90;99.90;;;;;;5135918;28;20577;-86
2022/09/18 08:43:56;;;;;;;4.07;1.60;;;13.90;99.90;;;;;;5135483;28;20217;-86
2022/09/18 08:46:26;;;;;;;1.63;1.53;;;13.90;99.90;;;;;;5136011;28;20210;-87
2022/09/18 08:49:01;;;;;;;3.83;2.05;;;14.00;99.90;;;;;;5135171;28;20433;-86
2022/09/18 08:51:33;;;;;;;4.90;1.57;;;14.10;99.90;;;;;;5137595;28;20198;-87
2022/09/18 08:54:15;;;;;;;3.93;1.70;;;14.20;99.90;;;;;;5135841;27;20203;-87
2022/09/18 08:56:42;;;;;;;3.33;1.63;;;14.20;99.90;;;;;;5133645;28;20219;-87
2022/09/18 08:59:16;;;;;;;2.27;1.60;;;14.20;99.90;;;;;;5133718;28;20211;-88
2022/09/18 09:01:49;;;;;;;5.77;2.30;;;14.20;99.90;;;;;;5138429;27;20196;-87
2022/09/18 09:04:19;;;;;;;4.77;1.40;;;14.10;99.90;;;;;;5143532;27;20194;-87
2022/09/18 09:06:59;;;;;;;7.53;1.83;;;14.10;99.90;;;;;;5131049;27;20192;-88
2022/09/18 09:09:43;;;;;;;3.33;1.77;;;14.20;99.90;;;;;;5127916;27;20651;-87
2022/09/18 09:12:16;;;;;;;3.17;2.07;;;14.30;99.90;;;;;;5119882;27;20600;-87
2022/09/18 09:15:15;;;;;;;4.33;1.40;;;14.50;99.90;;;;;;5123503;27;20199;-87
2022/09/18 09:17:48;;;;;;;6.40;2.10;;;14.50;99.90;;;;;;5126527;27;20430;-87
2022/09/18 09:20:21;;;;;;;1.73;1.63;;;14.70;99.90;;;;;;5115495;28;20293;-87
2022/09/18 09:22:57;;;;;;;2.03;1.50;;;14.70;99.90;;;;;;5118355;27;20279;-87
2022/09/18 09:25:30;;;;;;;2.53;1.53;;;14.70;99.90;;;;;;5114488;28;20194;-85
2022/09/18 09:28:03;;;;;;;3.63;1.70;;;14.60;99.90;;;;;;5116152;28;20223;-88
2022/09/18 09:30:35;;;;;;;2.60;1.90;;;14.50;99.90;;;;;;5117116;28;20196;-89
2022/09/18 09:33:08;;;;;;;5.17;1.90;;;14.50;99.90;;;;;;5116238;28;20208;-87
2022/09/18 09:35:40;;;;;;;4.40;1.73;;;14.60;99.90;;;;;;5117114;28;20541;-86
2022/09/18 09:38:25;;;;;;;8.47;2.27;;;14.50;99.90;;;;;;5116179;28;20235;-86
2022/09/18 09:40:53;;;;;;;3.27;1.60;;;14.60;99.90;;;;;;5115871;28;20196;-85
2022/09/18 09:43:27;;;;;;;7.27;2.10;;;14.50;99.90;;;;;;5116384;28;20644;-87
2022/09/18 09:45:59;;;;;;;3.77;1.83;;;14.50;99.90;;;;;;5116258;28;20561;-84
2022/09/18 09:48:32;;;;;;;3.70;2.00;;;14.70;99.90;;;;;;5115688;28;20339;-84
2022/09/18 09:51:08;;;;;;;2.40;1.73;;;14.80;99.90;;;;;;5116111;28;20202;-84
2022/09/18 09:53:36;;;;;;;2.87;1.80;;;15.00;99.90;;;;;;5114751;28;20232;-84
2022/09/18 09:56:12;;;;;;;5.53;2.10;;;15.10;99.90;;;;;;5116172;28;20247;-84
2022/09/18 09:58:47;;;;;;;1.93;1.67;;;15.20;99.90;;;;;;5115275;28;20229;-83
2022/09/18 10:01:22;;;;;;;2.93;1.83;;;15.20;99.90;;;;;;5115792;28;20553;-84
2022/09/18 10:03:58;;;;;;;5.13;1.50;;;15.40;99.90;;;;;;5115553;28;20209;-85
2022/09/18 10:06:37;;;;;;;2.13;1.63;;;15.50;99.90;;;;;;5116152;28;20211;-85
2022/09/18 10:09:14;;;;;;;2.43;1.80;;;15.50;99.90;;;;;;5113970;28;20232;-84
2022/09/18 10:11:42;;;;;;;2.70;1.70;;;15.60;99.90;;;;;;5116180;28;20635;-84
2022/09/18 10:14:15;;;;;;;8.13;2.00;;;15.70;99.90;;;;;;5115715;28;20260;-85
2022/09/18 10:16:47;;;;;;;2.80;1.60;;;15.80;99.90;;;;;;5115880;28;20817;-84
2022/09/18 10:19:17;;;;;;;2.07;1.60;;;15.80;99.90;;;;;;5114974;28;20200;-84
2022/09/18 10:21:45;;;;;;;6.00;1.93;;;16.00;99.90;;;;;;5115518;28;20211;-85
2022/09/18 10:24:19;;;;;;;2.57;1.83;;;16.00;99.90;;;;;;5115395;28;20657;-83
2022/09/18 10:26:49;;;;;;;2.77;1.77;;;16.10;99.90;;;;;;5115719;28;20207;-83
2022/09/18 10:29:18;;;;;;;3.03;1.40;;;16.10;99.90;;;;;;5115356;28;20224;-85
2022/09/18 10:31:51;;;;;;;1.53;1.43;;;15.90;99.90;;;;;;5115833;28;20200;-85
2022/09/18 10:34:32;;;;;;;3.80;2.00;;;16.00;99.90;;;;;;5115338;28;20565;-84
2022/09/18 10:36:59;;;;;;;2.43;1.70;;;15.90;99.90;;;;;;5115206;28;20195;-85
2022/09/18 10:39:28;;;;;;;3.80;1.40;;;15.80;99.90;;;;;;5115490;28;20188;-85
2022/09/18 10:41:58;;;;;;;5.27;1.60;;;15.80;99.90;;;;;;5115791;28;20189;-84
2022/09/18 10:44:27;;;;;;;2.67;1.73;;;15.90;99.90;;;;;;5114680;28;20208;-85
2022/09/18 10:47:01;;;;;;;4.17;1.60;;;16.00;99.90;;;;;;5114393;28;20674;-83
2022/09/18 10:49:31;;;;;;;2.30;1.37;;;16.00;99.90;;;;;;5129780;27;20292;-84
2022/09/18 10:52:18;;;;;;;2.80;1.60;;;16.10;99.90;;;;;;5134447;27;20210;-85
2022/09/18 10:54:58;;;;;;;5.03;1.50;;;16.30;99.90;;;;;;5135274;27;20214;-85
2022/09/18 10:57:28;;;;;;;1.30;1.10;;;16.40;99.90;;;;;;5134750;27;20571;-85
2022/09/18 10:59:55;;;;;;;4.10;1.10;;;16.40;99.90;;;;;;5134670;27;20650;-85
2022/09/18 11:02:26;;;;;;;2.67;1.10;;;16.50;99.90;;;;;;5140479;27;20195;-85
2022/09/18 11:04:53;;;;;;;3.63;1.30;;;16.40;99.90;;;;;;5134587;27;20611;-86
2022/09/18 11:07:20;;;;;;;2.55;1.30;;;16.40;99.90;;;;;;5134557;27;20917;-85
2022/09/18 11:09:47;;;;;;;1.27;1.17;;;16.40;99.90;;;;;;5134768;27;20211;-84
2022/09/18 11:12:17;;;;;;;4.33;1.40;;;16.30;99.90;;;;;;5135249;27;20196;-85
2022/09/18 11:14:49;;;;;;;1.57;1.00;;;16.20;99.90;;;;;;5134919;27;20659;-85
2022/09/18 11:17:33;;;;;;;1.73;1.00;;;16.20;99.90;;;;;;5135501;27;20231;-85
2022/09/18 11:20:02;;;;;;;2.90;0.90;;;16.20;99.90;;;;;;5133603;27;20210;-85
2022/09/18 11:22:37;;;;;;;1.43;0.83;;;16.30;99.90;;;;;;5135006;27;20204;-85
2022/09/18 11:25:17;;;;;;;4.33;0.87;;;16.50;99.90;;;;;;5134988;27;20203;-85
2022/09/18 11:27:46;;;;;;;2.20;0.90;;;16.40;99.90;;;;;;5129196;27;20295;-85
2022/09/18 11:30:21;;;;;;;0.97;0.77;;;16.20;99.90;;;;;;5114442;28;20549;-85
2022/09/18 11:32:52;;;;;;;0.93;0.60;;;16.20;99.90;;;;;;5114377;28;20203;-85
2022/09/18 11:35:21;;;;;;;2.50;0.90;;;16.10;99.90;;;;;;5113650;28;20429;-86
2022/09/18 11:37:51;;;;;;;2.80;0.97;;;16.10;99.90;;;;;;5112960;28;20263;-85
2022/09/18 11:40:22;;;;;;;1.00;0.70;;;16.10;99.90;;;;;;5113846;28;20601;-84
2022/09/18 11:42:52;;;;;;;0.60;0.57;;;16.10;99.90;;;;;;5114053;28;20359;-85
2022/09/18 11:45:43;;;;;;;1.33;0.77;;;16.20;99.90;;;;;;5114885;27;20193;-86
2022/09/18 11:48:23;;;;;;;2.90;0.70;;;16.10;99.90;;;;;;5123490;27;20229;-86
2022/09/18 11:50:54;;;;;;;1.30;0.83;;;16.00;99.90;;;;;;5112720;28;20218;-86
2022/09/18 11:53:24;;;;;;;0.80;0.80;;;16.10;99.90;;;;;;5119920;27;20202;-87
2022/09/18 11:55:59;;;;;;;1.00;0.40;;;16.40;99.90;;;;;;5125092;27;20311;-87
2022/09/18 11:58:32;;;;;;;1.83;0.67;;;16.70;99.90;;;;;;5123938;27;20683;-87
2022/09/18 12:01:11;;;;;;;5.30;0.93;;;16.80;99.90;;;;;;5113957;28;20551;-87
2022/09/18 12:03:44;;;;;;;3.20;0.60;;;16.60;99.90;;;;;;5113173;28;20207;-87
2022/09/18 12:06:18;;;;;;;1.93;0.70;;;16.50;99.90;;;;;;5113118;28;20199;-87
2022/09/18 12:08:51;;;;;;;2.63;0.80;;;16.50;99.90;;;;;;5126483;27;20223;-87
2022/09/18 12:11:24;;;;;;;4.77;1.13;;;16.60;99.90;;;;;;5134783;27;20207;-86
2022/09/18 12:14:01;;;;;;;0.93;0.60;;;16.60;99.90;;;;;;5134395;27;20664;-86
2022/09/18 12:16:39;;;;;;;1.87;0.90;;;16.50;99.90;;;;;;5134444;27;20206;-86
2022/09/18 12:19:14;;;;;;;1.67;0.80;;;16.40;99.90;;;;;;5134063;28;20199;-87
2022/09/18 12:21:49;;;;;;;0.93;0.83;;;16.40;99.90;;;;;;5134285;28;20187;-87
2022/09/18 12:24:17;;;;;;;1.27;0.87;;;16.30;99.90;;;;;;5133887;28;20214;-87
2022/09/18 12:26:53;;;;;;;0.70;0.67;;;16.10;99.90;;;;;;5135094;28;20194;-87
2022/09/18 12:29:39;;;;;;;1.33;0.80;;;16.00;99.90;;;;;;5134448;28;20231;-87
2022/09/18 12:32:21;;;;;;;2.67;0.80;;;16.10;99.90;;;;;;5133423;28;20438;-85
2022/09/18 12:34:56;;;;;;;1.40;0.50;;;16.10;99.90;;;;;;5134216;28;20573;-85
2022/09/18 12:37:39;;;;;;;1.43;1.23;;;16.10;99.90;;;;;;5131148;28;20204;-83
2022/09/18 12:40:36;;;;;;;1.93;0.70;;;16.10;99.90;;;;;;5112808;28;20250;-85
2022/09/18 12:43:29;;;;;;;0.93;0.70;;;16.20;99.90;;;;;;5110912;28;20200;-85
2022/09/18 12:46:08;;;;;;;1.83;0.97;;;16.20;99.90;;;;;;5116219;28;20200;-84
2022/09/18 12:48:57;;;;;;;3.20;0.80;;;16.20;99.90;;;;;;5116209;28;20602;-83
2022/09/18 12:51:38;;;;;;;2.97;0.60;;;16.20;99.90;;;;;;5116918;28;20211;-85
2022/09/18 12:54:45;;;;;;;1.43;0.70;;;16.20;99.90;;;;;;5117047;28;20620;-84
2022/09/18 12:57:24;;;;;;;3.20;1.00;;;16.20;99.90;;;;;;5117072;28;20216;-85
2022/09/18 12:59:57;;;;;;;1.03;0.70;;;16.20;99.90;;;;;;5116532;28;20571;-85
2022/09/18 13:02:41;;;;;;;2.33;0.70;;;16.20;99.90;;;;;;5116956;28;20548;-85
2022/09/18 13:05:13;;;;;;;2.57;0.90;;;16.40;99.90;;;;;;5117200;28;20207;-85
2022/09/18 13:07:47;;;;;;;1.23;0.80;;;16.70;99.90;;;;;;5117489;28;20197;-85